UHWW 150800Z 22004MPS 9999 SCT026 25/20 Q1014 R25L/0///70 NOSIG RMK QFE759
QNH:(hPa/inHg/mmHg)1014 / 29.94 / 761
QFE:(hPa/inHg/mmHg)1012 / 29.88 / 759
Temperature25
Dew Point20
Visibility> 10000
Weather
Cloud CoverSCT (2600);
Transition Altitude7000 ft.
Transition LevelFL80
SQUAWK